This is the latest recevied weather packets stored in our database for station/object CA4LJZ-10. If no packets are shown the sender has not sent any weather packets the latest 10 day(s).
| Time | Temp. | Humidity | Pressure | Rain* | Wind** | Luminosity | Snow |
|---|---|---|---|---|---|---|---|
| 1788328526 | 21.67° C | 43% | 955.4 hPa | - | - | - | - |
| 1788327626 | 21.67° C | 43% | 955.6 hPa | - | - | - | - |
| 1788326724 | 22.22° C | 42% | 955.7 hPa | - | - | - | - |
| 1788325823 | 21.67° C | 42% | 955.5 hPa | - | - | - | - |
| 1788324922 | 21.11° C | 43% | 955.8 hPa | - | - | - | - |
| 1788324021 | 21.67° C | 41% | 955.7 hPa | - | - | - | - |
| 1788297915 | 27.78° C | 29% | 955 hPa | - | - | - | - |
| 1788297014 | 28.33° C | 27% | 954.9 hPa | - | - | - | - |
| 1788293410 | 30° C | 26% | 955.3 hPa | - | - | - | - |
| 1788290707 | 31.11° C | 23% | 955.3 hPa | - | - | - | - |
| 1788288005 | 31.11° C | 24% | 955.6 hPa | - | - | - | - |
| 1788287104 | 32.78° C | 23% | 955.9 hPa | - | - | - | - |
| 1788286228 | 30.56° C | 23% | 956.1 hPa | - | - | - | - |
| 1788284427 | 33.89° C | 20% | 956.7 hPa | - | - | - | - |
| 1788283526 | 34.44° C | 20% | 956.8 hPa | - | - | - | - |
| 1788282625 | 36.11° C | 18% | 957.1 hPa | - | - | - | - |
| 1788281724 | 37.78° C | 18% | 957.5 hPa | - | - | - | - |
| 1788280823 | 36.67° C | 18% | 957.8 hPa | - | - | - | - |
| 1788279922 | 36.11° C | 18% | 958 hPa | - | - | - | - |
| 1788279021 | 35.56° C | 19% | 958.2 hPa | - | - | - | - |
| 1788276318 | 31.67° C | 24% | 958.8 hPa | - | - | - | - |
| 1788273616 | 27.22° C | 30% | 959 hPa | - | - | - | - |
| 1788272711 | 25° C | 35% | 959.1 hPa | - | - | - | - |
| 1788271810 | 25° C | 34% | 959.2 hPa | - | - | - | - |
| 1788270909 | 23.89° C | 37% | 959.2 hPa | - | - | - | - |
* Rain since midnight (hover to see other rain measurements)
** Current wind speed in m/s (hover to see current wind gust speed)